Flight Track Log - Related Links

Times and Time Zones

All times are in EDT time to prevent confusion due to time zone crossing. See the N762NC flight status page for this flight to view local times or setup timezone preferences in your user account.

Time Position Orientation Groundspeed Altitude Reporting Facility
EDT Latitude Longitude Course Direction KTS MPH feet Rate Location/Type
Thu 01:31:25 PM 33.6500 -84.4833 North 203 234 3,100  Level Atlanta TRACON
Thu 01:32:25 PM 33.6667 -84.5667 284° West 257 296 5,700 2,579 Climbing Atlanta TRACON
Thu 01:33:19 PM 33.7167 -84.6333 312° West 262 302 8,000 2,211 Climbing Atlanta TRACON
Thu 01:34:00 PM 34.0295 -84.2089 12° North  Level Estimated
Thu 01:34:19 PM 33.7833 -84.6333 360° North 273 314 9,900  Level Atlanta TRACON
Thu 01:35:00 PM 34.1377 -84.2045 North  Level FlightAware Approximate
Thu 01:35:53 PM 33.9119 -84.5969 13° North 306 352 10,500  Level Atlanta Center
Thu 01:36:00 PM 34.2459 -84.2000 North  Level FlightAware Approximate
Thu 01:36:53 PM 33.9997 -84.5600 19° North 340 391 11,900  Level Atlanta Center
Thu 01:37:53 PM 34.0958 -84.5206 19° North 359 413 13,800 1,850 Climbing Atlanta Center
Thu 01:38:53 PM 34.1964 -84.4833 17° North 370 426 15,600 1,850 Climbing Atlanta Center
Thu 01:39:53 PM 34.3008 -84.4436 17° North 382 440 17,500 1,650 Climbing Atlanta Center
Thu 01:40:53 PM 34.4136 -84.3964 19° North 387 445 18,900 1,450 Climbing Atlanta Center
Thu 01:41:53 PM 34.5222 -84.3589 16° North 393 452 20,400 1,550 Climbing Atlanta Center
Thu 01:42:53 PM 34.6289 -84.3139 19° North 398 458 22,000 1,450 Climbing Atlanta Center
Thu 01:43:53 PM 34.7394 -84.2689 18° North 403 464 23,300 1,300 Climbing Atlanta Center
Thu 01:44:53 PM 34.8461 -84.2158 22° Northeast 409 471 24,600 850 Climbing Atlanta Center
Thu 01:45:53 PM 34.9567 -84.1603 22° Northeast 409 471 25,000 450 Climbing Atlanta Center
Thu 01:46:53 PM 35.0736 -84.1072 20° North 428 493 25,500 700 Climbing Atlanta Center
Thu 01:47:53 PM 35.1883 -84.0769 12° North 428 493 26,400 900 Climbing Atlanta Center
Thu 01:48:53 PM 35.3072 -84.0667 North 423 487 27,300 850 Climbing Atlanta Center
Thu 01:49:53 PM 35.4200 -84.0542 North 417 480 28,100 800 Climbing Atlanta Center
Thu 01:50:53 PM 35.5306 -84.0208 14° North 412 474 28,900 450 Climbing Atlanta Center
Thu 01:51:53 PM 35.6389 -83.9722 20° North 405 466 29,000 50 Climbing Atlanta Center
Thu 01:52:53 PM 35.7411 -83.9389 15° North 411 473 29,000  Level Atlanta Center
Thu 01:53:53 PM 35.8600 -83.9261 North 417 480 29,000 100 Level Atlanta Center
Thu 01:54:53 PM 35.9747 -83.8900 14° North 417 480 29,200 500 Climbing Atlanta Center
Thu 01:55:53 PM 36.0789 -83.8203 28° Northeast 417 480 30,000 800 Climbing Atlanta Center
Thu 01:56:53 PM 36.1642 -83.7147 45° Northeast 417 480 30,800 771 Climbing Atlanta Center
Thu 01:57:42 PM 36.2408 -83.6383 39° Northeast 428 493 31,400 757 Climbing Indianapolis Center
Thu 01:58:44 PM 36.3467 -83.5764 25° Northeast 423 487 32,200 726 Climbing Indianapolis Center
Thu 01:59:46 PM 36.4556 -83.5231 21° North 422 486 32,900 726 Climbing Indianapolis Center
Thu 02:00:48 PM 36.5811 -83.4406 28° Northeast 426 490 33,700 726 Climbing Indianapolis Center
Thu 02:01:50 PM 36.6839 -83.3644 31° Northeast 427 491 34,400 629 Climbing Indianapolis Center
Thu 02:02:52 PM 36.7914 -83.3006 25° Northeast 425 489 35,000 290 Climbing Indianapolis Center
Thu 02:03:54 PM 36.8983 -83.2297 28° Northeast 428 493 35,000  Level Indianapolis Center
Thu 02:04:56 PM 37.0061 -83.1517 30° Northeast 438 504 35,000  Level Indianapolis Center
Thu 02:05:57 PM 37.1164 -83.0828 26° Northeast 436 502 35,000  Level Indianapolis Center
Thu 02:06:59 PM 37.2236 -83.0122 28° Northeast 431 496 35,000  Level Indianapolis Center
Thu 02:08:01 PM 37.3286 -82.9364 30° Northeast 431 496 35,000  Level Indianapolis Center
Thu 02:09:03 PM 37.4528 -82.8539 28° Northeast 433 498 35,000  Level Indianapolis Center
Thu 02:10:05 PM 37.5578 -82.7722 32° Northeast 442 509 35,000  Level Indianapolis Center
Thu 02:11:07 PM 37.6683 -82.7086 24° Northeast 439 505 35,000  Level Indianapolis Center
Thu 02:12:09 PM 37.7833 -82.6528 21° North 441 507 35,000  Level Indianapolis Center
Thu 02:13:11 PM 37.9003 -82.6058 18° North 441 507 35,000  Level Indianapolis Center
Thu 02:14:13 PM 38.0192 -82.5689 14° North 439 505 35,000  Level Indianapolis Center
Thu 02:15:15 PM 38.1553 -82.5072 20° North 443 510 35,000  Level Indianapolis Center
Thu 02:16:17 PM 38.2608 -82.4247 32° Northeast 447 514 35,000  Level Indianapolis Center
Thu 02:17:19 PM 38.3547 -82.3169 42° Northeast 451 519 35,000  Level Indianapolis Center
Thu 02:18:21 PM 38.4578 -82.2236 35° Northeast 453 521 35,000 -144 Level Indianapolis Center
Thu 02:19:24 PM 38.5672 -82.1419 30° Northeast 454 522 34,700 -384 Descending Indianapolis Center
Thu 02:20:26 PM 38.6883 -82.0794 22° Northeast 463 533 34,200 -581 Descending Indianapolis Center
Thu 02:21:28 PM 38.8072 -82.0022 27° Northeast 476 548 33,500 -677 Descending Indianapolis Center
Thu 02:22:30 PM 38.9067 -81.8825 43° Northeast 483 556 32,800 -871 Descending Indianapolis Center
Thu 02:23:32 PM 39.0303 -81.7558 39° Northeast 470 541 31,700 -1,500 Descending Indianapolis Center
Thu 02:24:34 PM 39.1403 -81.6753 30° Northeast 454 522 29,700 -2,177 Descending Indianapolis Center
Thu 02:25:36 PM 39.2478 -81.5889 32° Northeast 454 522 27,200 -2,371 Descending Indianapolis Center
Thu 02:26:38 PM 39.3372 -81.4731 45° Northeast 451 519 24,800 -2,323 Descending Indianapolis Center
Thu 02:27:40 PM 39.4414 -81.3831 34° Northeast 451 519 22,400 -1,887 Descending Indianapolis Center
Thu 02:28:42 PM 39.5442 -81.2969 33° Northeast 441 507 20,900 -919 Descending Indianapolis Center
Thu 02:29:44 PM 39.6303 -81.1956 42° Northeast 425 489 20,500 -1,065 Descending Indianapolis Center
Thu 02:30:46 PM 39.7419 -81.0967 34° Northeast 409 471 18,700 -1,694 Descending Indianapolis Center
Thu 02:31:48 PM 39.8361 -81.0142 34° Northeast 408 470 17,000 -2,323 Descending Indianapolis Center
Thu 02:32:50 PM 39.9139 -80.9292 40° Northeast 371 427 13,900 -2,976 Descending Indianapolis Center
Thu 02:33:53 PM 39.9994 -80.8428 38° Northeast 364 419 10,800 -1,872 Descending Indianapolis Center
Thu 02:34:55 PM 40.0836 -80.7858 27° Northeast 340 391 10,000 -387 Descending Indianapolis Center
Thu 02:35:57 PM 40.1544 -80.7397 26° Northeast 294 338 10,000  Level Indianapolis Center
Thu 02:37:01 PM 40.2200 -80.6914 29° Northeast 273 314 10,000 -762 Level Cleveland Center
Thu 02:38:03 PM 40.2817 -80.6414 32° Northeast 263 303 8,400 -1,839 Descending Cleveland Center
Thu 02:39:05 PM 40.3442 -80.5631 44° Northeast 261 300 6,200 -1,935 Descending Cleveland Center
Thu 02:40:07 PM 40.3964 -80.5044 41° Northeast 248 285 4,400 -1,306 Descending Cleveland Center
Thu 02:41:09 PM 40.4450 -80.4569 37° Northeast 223 257 3,500 -532 Descending Cleveland Center
Thu 02:42:11 PM 40.4844 -80.4097 42° Northeast 201 231 3,300 -339 Descending Cleveland Center
Thu 02:43:13 PM 40.5053 -80.3594 61° Northeast 175 201 2,800 -726 Descending Cleveland Center
Thu 02:44:15 PM 40.5031 -80.3064 93° East 156 180 1,800 -968 Descending Cleveland Center

Login

Don't have an account? Register now (free) for customized features, flight alerts, and more!